Hawaii METAR Reports

 

PHOG - Kahului, Hawaii, USA
Distance from station: WNW 8mi, 13km
Updated: Sun, 16-Feb-2020 1:54pm HST
Partly Cloudy
Partly Cloudy
 Wind from ENE
Wind: ENE 21 mph , 33 km/h, Gust: 35 mph , 56 km/h
Temperature: 81°F , 27°C
Heat Index: 83°F , 28°C
Dew Point: 64°F , 18°C
Humidity: 58%
Barometer: 29.96 inHg , 1014.6 hPa
Clouds: Partly Cloudy
Visibility: 10 miles , 16 km
Cloud details: Few Clouds 4000 ft
Partly Cloudy 6000 ft
2020/02/16 23:54 PHOG 162354Z 06018G30KT 10SM FEW040 SCT060 27/18 A2996 RMK AO2 PK WND 05030/2348 SLP152 60000 T02670183 10272 20211 56031 $
PHJH - Lahaina/West Mau, Hawaii, USA
Distance from station: WNW 24mi, 39km
Updated: Sun, 16-Feb-2020 1:45pm HST
Mostly Cloudy
Mostly Cloudy
 Wind from NE
Wind: NE 17 mph , 28 km/h
Temperature: 75°F , 24°C
Dew Point: 64°F , 18°C
Humidity: 69%
Barometer: 29.99 inHg , 1015.6 hPa
Clouds: Mostly Cloudy
Visibility: 10 miles , 16 km
Cloud details: Partly Cloudy 2500 ft
Mostly Cloudy 4000 ft
2020/02/16 23:45 PHJH 162345Z 05015KT 10SM SCT025 BKN040 24/18 A2999
 
PHNY - Lanai City Airpo, Hawaii, USA
Distance from station: W 40mi, 65km
Updated: Sun, 16-Feb-2020 1:56pm HST
Overcast
Overcast
 Wind from calm
Wind: Calm
Temperature: 72°F , 22°C
Dew Point: 64°F , 18°C
Humidity: 78%
Barometer: 30.02 inHg , 1016.6 hPa
Clouds: Overcast
Visibility: 10 miles , 16 km
Cloud details: Overcast 2400 ft
2020/02/16 23:56 PHNY 162356Z AUTO 00000KT 10SM OVC024 22/18 A3002 RMK AO2 RAB28E48 SLP148 P0000 60000 T02220178 10233 20189 56028
PHMK - Molokai, Hawaii, USA
Distance from station: WNW 55mi, 88km
Updated: Sun, 16-Feb-2020 1:54pm HST
Light rain, Overcast
Light rain, Overcast
 Wind from NNE
Wind: NNE 14 mph , 22 km/h, Gust: 23 mph , 37 km/h
Temperature: 73°F , 23°C
Dew Point: 63°F , 17°C
Humidity: 69%
Barometer: 30.01 inHg , 1016.3 hPa
Summary: Light Rain
Clouds: Overcast
Visibility: 9 miles , 14 km
Cloud details: Few Clouds 2300 ft
Mostly Cloudy 3700 ft
Overcast 4600 ft
2020/02/16 23:54 PHMK 162354Z 03012G20KT 9SM -RA FEW023 BKN037 OVC046 23/17 A3001 RMK AO2 PK WND 06027/2257 RAB38 SLP163 P0000 60001 T02330172 10250 20217 56027 $
 
PHKO - Kailua/Kona, Hawaii, USA
Distance from station: SSE 79mi, 128km
Updated: Sun, 16-Feb-2020 1:53pm HST
Mostly Cloudy
Mostly Cloudy
 Wind from S
Wind: S 9 mph , 15 km/h
Temperature: 79°F , 26°C
Dew Point: 64°F , 18°C
Humidity: 61%
Barometer: 29.92 inHg , 1013.2 hPa
Clouds: Mostly Cloudy
Visibility: 10 miles , 16 km
Cloud details: Partly Cloudy 4000 ft
Mostly Cloudy 6000 ft
2020/02/16 23:53 PHKO 162353Z 18008KT 10SM SCT040 BKN060 26/18 A2992 RMK AO2 SLP132 T02560178 10261 20222 56029
PHSF - Bradshaw Aaf/Haw, Hawaii, USA
Distance from station: SE 90mi, 145km
Updated: Sun, 16-Feb-2020 1:58pm HST
Clear
Clear
 Wind from SE
Wind: SE 12 mph , 19 km/h, Gust: 17 mph , 28 km/h
Clouds: Clear
Visibility: 10 miles , 16 km
2020/02/16 23:58 PHSF 162358Z AUTO 14010G15KT 10SM CLR M A3021 RMK AO2 SLPNO 57023 FZRANO $
 
PHNG - Kaneohe Mcas, Hawaii, USA
Distance from station: WNW 102mi, 164km
Updated: Sun, 16-Feb-2020 12:57pm HST
Mostly Cloudy
Mostly Cloudy
 Wind from E
Wind: E 14 mph , 22 km/h, Gust: 23 mph , 37 km/h
Temperature: 77°F , 25°C
Dew Point: 63°F , 17°C
Humidity: 61%
Barometer: 30.01 inHg , 1016.3 hPa
Clouds: Mostly Cloudy
Visibility: 10 miles , 16 km
Cloud details: Few Clouds 2900 ft
Mostly Cloudy 5000 ft
2020/02/16 22:57 PHNG 162257Z 08012G20KT 050V110 10SM FEW029 BKN050 25/17 A3001 RMK AO2 SLP157 T02500167 $
PHNL - Honolulu, Hawaii, USA
Distance from station: WNW 108mi, 174km
Updated: Sun, 16-Feb-2020 1:53pm HST
Mostly Cloudy
Mostly Cloudy
 Wind from ENE
Wind: ENE 16 mph , 26 km/h, Gust: 26 mph , 43 km/h
Temperature: 81°F , 27°C
Heat Index: 82°F , 28°C
Dew Point: 63°F , 17°C
Humidity: 54%
Barometer: 29.98 inHg , 1015.2 hPa
Clouds: Mostly Cloudy
Visibility: 10 miles , 16 km
Cloud details: Few Clouds 2500 ft
Partly Cloudy 3900 ft
Mostly Cloudy 5500 ft
2020/02/16 23:53 PHNL 162353Z 06014G23KT 10SM FEW025 SCT039 BKN055 27/17 A2998 RMK AO2 SLP153 VCSH NE T02720167 10278 20233 58029
 
PHTO - Hilo, Hawaii, USA
Distance from station: SE 114mi, 183km
Updated: Sun, 16-Feb-2020 1:53pm HST
Few Clouds
Few Clouds
 Wind from N
Wind: N 8 mph , 13 km/h
Temperature: 79°F , 26°C
Dew Point: 63°F , 17°C
Humidity: 58%
Barometer: 29.99 inHg , 1015.6 hPa
Clouds: Few Clouds
Visibility: 10 miles , 16 km
Cloud details: Few Clouds 6000 ft
2020/02/16 23:53 PHTO 162353Z 01007KT 10SM FEW060 26/17 A2999 RMK AO2 SLP155 T02610172 10267 20206 58030
PHJR - Kalaeloa, Hawaii, USA
Distance from station: WNW 117mi, 189km
Updated: Sun, 16-Feb-2020 5:53am HST
NOT Current
Clear
Clear
 Wind from E
Wind: E 8 mph , 13 km/h
Temperature: 73°F , 23°C
Dew Point: 59°F , 15°C
Humidity: 61%
Barometer: 30.03 inHg , 1016.9 hPa
Clouds: Clear
Visibility: 10 miles , 16 km
2020/02/16 15:53 PHJR 161553Z 08007KT 10SM CLR 23/15 A3003 RMK AO2 SLP173 T02330150 $
 
PHHI - Wheeler Afb/Oahu, Hawaii, USA
Distance from station: WNW 120mi, 193km
Updated: Sun, 16-Feb-2020 1:56pm HST
Overcast
Overcast
 Wind from NNE
Wind: NNE 12 mph , 19 km/h
Temperature: 73°F , 23°C
Dew Point: 63°F , 17°C
Humidity: 69%
Barometer: 30.00 inHg , 1015.9 hPa
Clouds: Overcast
Visibility: 10 miles , 16 km
Cloud details: Mostly Cloudy 2800 ft
Overcast 3800 ft
2020/02/16 23:56 PHHI 162356Z AUTO 03010KT 10SM BKN028 OVC038 23/17 A3000 RMK AO2 SLP151 60000 T02340171 10243 20211 57025 $
PHLI - Lihue/Kauai Is, Hawaii, USA
Distance from station: WNW 209mi, 336km
Updated: Sun, 16-Feb-2020 1:53pm HST
Overcast
Overcast
 Wind from NE
Wind: NE 15 mph , 24 km/h
Temperature: 75°F , 24°C
Dew Point: 68°F , 20°C
Humidity: 78%
Barometer: 30.04 inHg , 1017.3 hPa
Clouds: Overcast
Visibility: 10 miles , 16 km
Cloud details: Few Clouds 2300 ft
Partly Cloudy 3400 ft
Overcast 4900 ft
2020/02/16 23:53 PHLI 162353Z 05013KT 10SM FEW023 SCT034 OVC049 24/20 A3004 RMK AO2 RAB13E28 SLP150 P0001 60002 T02440200 10256 20217 58027 $
 
PHBK - Barking Sands/Ka, Hawaii, USA
Distance from station: WNW 237mi, 382km
Updated: Sun, 16-Feb-2020 1:37pm HST
Overcast
Overcast
 Wind from W
Wind: W 7 mph , 11 km/h
Temperature: 79°F , 26°C
Dew Point: 63°F , 17°C
Humidity: 58%
Barometer: 30.01 inHg , 1016.3 hPa
Clouds: Overcast
Visibility: 10 miles , 16 km
Cloud details: Overcast 5500 ft
2020/02/16 23:37 PHBK 162337Z AUTO 28006KT 10SM OVC055 26/17 A3001 RMK AO2 T02560172 $